Oak Island, North Carolina
Current Conditions -  °F | °C
As of 5:35 AM on Monday 20 Oct 2014 (Local Time) from KSUT Reporting Station
Clear Clear  
Wind Chill: 48°   Ceiling: Unl
Heat Index: 49°   Visibility: 10mi
Dew Point: 42°   Wind: 5mph
Humidity: 76%   Direction: 20°NNE
Pressure: 30.14"   Gusts: NA
Location:  33.92°N, 78.16°W
Report Text: KSUT 200935Z AUTO 02004KT 10SM CLR 10/06 A3014 RMK AO2 T00960055
Loading
Personal Weather Stations






























Interactive Weather Map
Tropical Storm Tracking
New forecast layout! Learn more

10-Day Weather Forecast

Advertisements
Track Severe Weather on mobile